Appleton, Washington
Current Conditions -  °F | °C
As of 3:53 PM on Saturday 25 Oct 2014 (Local Time) from KDLS Reporting Station
Broken Clouds Broken Clouds  
Wind Chill: 15°   Ceiling: 9000
Heat Index: 15°   Visibility: 10mi
Dew Point: 10°   Wind: 3mph
Humidity: 72%   Direction: 140°SE
Pressure: 29.5"   Gusts: NA
Location:  45.81°N, 121.27°W
Report Text: KDLS 252253Z AUTO 14003KT 10SM BKN090 15/10 A2950 RMK AO2 RAE07 SLP988 P0000 T01500100
Loading
Personal Weather Stations






























Interactive Weather Map
Tropical Storm Tracking
New forecast layout! Learn more

10-Day Weather Forecast

Advertisements
Track Severe Weather on mobile